Time;durP1;ratioP1;P1;durP2;ratioP2;P2;SDS_P1;SDS_P2;PMS_P1;PMS_P2;Temp;Humidity;BMP_temperature;BMP_pressure;BME280_temperature;BME280_humidity;BME280_pressure;Samples;Min_cycle;Max_cycle;Signal;HPM_P1;HPM_P2
2024/02/10 00:00:36;;;;;;;40.33;8.80;;;12.40;99.90;;;;;;5045954;28;20032;-50
2024/02/10 00:03:02;;;;;;;22.20;7.20;;;12.40;99.90;;;;;;5061170;28;20029;-50
2024/02/10 00:05:28;;;;;;;37.65;7.70;;;12.40;99.90;;;;;;5046022;28;20038;-50
2024/02/10 00:07:55;;;;;;;26.27;7.40;;;12.40;99.90;;;;;;5077956;28;20108;-50
2024/02/10 00:10:24;;;;;;;36.20;7.20;;;12.40;99.90;;;;;;5077770;28;20037;-50
2024/02/10 00:12:57;;;;;;;28.02;7.53;;;12.40;99.90;;;;;;5077386;28;20025;-50
2024/02/10 00:15:23;;;;;;;31.08;7.30;;;12.40;99.90;;;;;;5077704;28;20026;-50
2024/02/10 00:17:49;;;;;;;32.03;7.72;;;12.40;99.90;;;;;;5061228;28;20048;-50
2024/02/10 00:20:15;;;;;;;27.00;8.32;;;12.40;99.90;;;;;;5061487;28;20037;-49
2024/02/10 00:22:43;;;;;;;27.67;7.13;;;12.40;99.90;;;;;;5048360;28;20048;-50
2024/02/10 00:25:09;;;;;;;39.42;8.35;;;12.30;99.90;;;;;;5049807;28;20135;-50
2024/02/10 00:27:37;;;;;;;27.45;7.55;;;12.30;99.90;;;;;;5081786;28;20029;-50
2024/02/10 00:30:07;;;;;;;29.73;7.03;;;12.30;99.90;;;;;;5049684;28;20029;-50
2024/02/10 00:32:33;;;;;;;29.45;7.85;;;12.30;99.90;;;;;;5081665;28;20045;-50
2024/02/10 00:34:59;;;;;;;32.38;7.15;;;12.30;99.90;;;;;;5048497;28;20536;-50
2024/02/10 00:37:24;;;;;;;35.67;7.57;;;12.30;99.90;;;;;;5064844;28;20041;-50
2024/02/10 00:39:50;;;;;;;25.10;6.57;;;12.30;99.90;;;;;;5081665;28;20111;-50
2024/02/10 00:42:18;;;;;;;30.67;7.70;;;12.30;99.90;;;;;;5049436;28;20026;-50
2024/02/10 00:44:51;;;;;;;32.92;7.50;;;12.30;99.90;;;;;;5047973;28;20096;-50
2024/02/10 00:47:16;;;;;;;40.45;7.20;;;12.30;99.90;;;;;;5049093;28;20041;-50
2024/02/10 00:49:42;;;;;;;22.73;6.75;;;12.30;99.90;;;;;;5081530;28;20029;-50
2024/02/10 00:52:08;;;;;;;20.88;7.13;;;12.30;99.90;;;;;;5081351;28;20024;-50
2024/02/10 00:54:37;;;;;;;26.83;6.97;;;12.20;99.90;;;;;;5049335;28;20028;-50
2024/02/10 00:57:10;;;;;;;26.17;6.60;;;12.20;99.90;;;;;;5064331;28;20065;-50
2024/02/10 00:59:44;;;;;;;24.90;6.97;;;12.20;99.90;;;;;;5079928;28;20052;-50
2024/02/10 01:02:11;;;;;;;29.20;6.95;;;12.20;99.90;;;;;;5048888;28;20037;-50
2024/02/10 01:04:40;;;;;;;32.65;7.68;;;12.20;99.90;;;;;;5081249;28;20040;-50
2024/02/10 01:07:08;;;;;;;27.50;6.53;;;12.20;99.90;;;;;;5080887;28;20064;-50
2024/02/10 01:09:34;;;;;;;21.17;6.20;;;12.10;99.90;;;;;;5080101;28;20021;-50
2024/02/10 01:12:00;;;;;;;21.63;6.80;;;12.20;99.90;;;;;;5080887;28;20053;-50
2024/02/10 01:14:29;;;;;;;24.38;6.63;;;12.10;99.90;;;;;;5047405;28;20061;-50
2024/02/10 01:16:55;;;;;;;27.63;6.15;;;12.10;99.90;;;;;;5048741;28;20057;-50
2024/02/10 01:19:20;;;;;;;32.28;8.05;;;12.10;99.90;;;;;;5080488;28;20041;-50
2024/02/10 01:21:47;;;;;;;29.65;6.38;;;12.10;99.90;;;;;;5048540;28;20029;-50
2024/02/10 01:24:12;;;;;;;25.58;7.53;;;12.10;99.90;;;;;;5063669;28;20068;-50
2024/02/10 01:26:40;;;;;;;21.05;5.82;;;12.10;99.90;;;;;;5048500;28;20038;-50
2024/02/10 01:29:08;;;;;;;29.52;6.80;;;12.10;99.90;;;;;;5063536;28;20403;-50
2024/02/10 01:31:34;;;;;;;30.75;6.55;;;12.10;99.90;;;;;;5063700;28;20501;-50
2024/02/10 01:33:59;;;;;;;19.23;6.20;;;12.00;99.90;;;;;;5080142;28;20021;-50
2024/02/10 01:36:25;;;;;;;23.67;6.30;;;12.00;99.90;;;;;;5048279;28;20075;-50
2024/02/10 01:38:51;;;;;;;29.27;7.93;;;12.00;99.90;;;;;;5063739;28;20036;-50
2024/02/10 01:41:16;;;;;;;22.40;7.00;;;12.00;99.90;;;;;;5048047;28;20030;-50
2024/02/10 01:43:43;;;;;;;20.65;5.82;;;12.00;99.90;;;;;;5080143;28;20034;-50
2024/02/10 01:46:11;;;;;;;27.95;6.22;;;12.00;99.90;;;;;;5080118;28;20057;-50
2024/02/10 01:48:37;;;;;;;23.98;6.53;;;12.00;99.90;;;;;;5080026;28;20030;-50
2024/02/10 01:51:02;;;;;;;24.02;6.38;;;12.00;99.90;;;;;;5048013;28;20056;-50
2024/02/10 01:53:28;;;;;;;18.35;6.10;;;12.00;99.90;;;;;;5047999;28;20029;-50
2024/02/10 01:55:53;;;;;;;20.42;5.85;;;12.00;99.90;;;;;;5080094;28;20026;-50
2024/02/10 01:58:22;;;;;;;17.40;6.13;;;11.90;99.90;;;;;;5080222;28;20029;-50
2024/02/10 02:00:49;;;;;;;19.98;5.60;;;11.90;99.90;;;;;;5046694;28;20125;-50
2024/02/10 02:03:15;;;;;;;21.52;6.00;;;11.90;99.90;;;;;;5079955;28;20037;-50
2024/02/10 02:05:41;;;;;;;18.95;6.13;;;11.90;99.90;;;;;;5047795;28;20538;-50
2024/02/10 02:08:07;;;;;;;20.45;5.75;;;11.90;99.90;;;;;;5079608;28;20105;-50
2024/02/10 02:10:33;;;;;;;21.77;5.80;;;11.90;99.90;;;;;;5080037;28;20036;-50
2024/02/10 02:12:59;;;;;;;21.90;6.07;;;11.80;99.90;;;;;;5046242;28;20022;-50
2024/02/10 02:15:29;;;;;;;18.80;6.32;;;11.90;99.90;;;;;;5079467;28;20089;-50
2024/02/10 02:17:55;;;;;;;12.15;5.53;;;11.80;99.90;;;;;;5078616;28;20037;-50
2024/02/10 02:20:22;;;;;;;20.00;5.95;;;11.80;99.90;;;;;;5047574;28;20108;-49
2024/02/10 02:22:54;;;;;;;13.18;5.60;;;11.80;99.90;;;;;;5078945;28;20076;-50
2024/02/10 02:25:20;;;;;;;22.05;5.60;;;11.80;99.90;;;;;;5079415;28;20037;-50
2024/02/10 02:27:46;;;;;;;18.85;5.97;;;11.80;99.90;;;;;;5047382;28;20093;-50
2024/02/10 02:30:12;;;;;;;19.30;6.15;;;11.80;99.90;;;;;;5079200;28;20026;-50
2024/02/10 02:32:37;;;;;;;14.73;5.75;;;11.80;99.90;;;;;;5079436;28;20057;-50
2024/02/10 02:35:09;;;;;;;14.05;5.63;;;11.80;99.90;;;;;;5047197;28;20493;-50
2024/02/10 02:37:36;;;;;;;19.55;5.63;;;11.80;99.90;;;;;;5077863;28;20026;-50
2024/02/10 02:40:05;;;;;;;15.10;5.75;;;11.70;99.90;;;;;;5047039;28;20084;-50
2024/02/10 02:42:31;;;;;;;16.45;5.40;;;11.70;99.90;;;;;;5047054;28;20026;-50
2024/02/10 02:44:56;;;;;;;14.90;5.70;;;11.70;99.90;;;;;;5046256;28;20033;-50
2024/02/10 02:47:22;;;;;;;15.32;5.35;;;11.70;99.90;;;;;;5078993;28;20022;-50
2024/02/10 02:49:48;;;;;;;20.05;5.15;;;11.70;99.90;;;;;;5047030;28;20029;-50
2024/02/10 02:52:14;;;;;;;12.25;5.20;;;11.70;99.90;;;;;;5078795;28;20057;-50
2024/02/10 02:54:39;;;;;;;18.35;5.97;;;11.70;99.90;;;;;;5045567;28;20025;-50
2024/02/10 02:57:05;;;;;;;13.20;5.35;;;11.70;99.90;;;;;;5078957;28;20068;-50
2024/02/10 02:59:30;;;;;;;16.92;5.65;;;11.60;99.90;;;;;;5046666;28;20025;-50
2024/02/10 03:01:56;;;;;;;15.10;5.50;;;11.60;99.90;;;;;;5078850;28;20041;-50
2024/02/10 03:04:22;;;;;;;14.13;5.40;;;11.70;99.90;;;;;;5078662;28;20112;-50
2024/02/10 03:06:50;;;;;;;14.55;5.07;;;11.60;99.90;;;;;;5046743;28;20087;-50
2024/02/10 03:09:15;;;;;;;14.55;5.45;;;11.60;99.90;;;;;;5046720;28;20100;-49
2024/02/10 03:11:41;;;;;;;12.52;5.40;;;11.60;99.90;;;;;;5062012;28;20466;-50
2024/02/10 03:14:07;;;;;;;13.60;5.65;;;11.60;99.90;;;;;;5045408;28;20075;-49
2024/02/10 03:16:33;;;;;;;16.92;5.40;;;11.60;99.90;;;;;;5062001;28;20045;-50
2024/02/10 03:19:04;;;;;;;14.85;5.80;;;11.60;99.90;;;;;;5046620;28;20026;-50
2024/02/10 03:21:32;;;;;;;15.70;5.60;;;11.50;99.90;;;;;;5046666;28;20038;-50
2024/02/10 03:24:02;;;;;;;14.57;5.07;;;11.50;99.90;;;;;;5046549;28;20056;-50
2024/02/10 03:26:37;;;;;;;13.70;5.10;;;11.50;99.90;;;;;;5077290;28;20059;-50
2024/02/10 03:29:05;;;;;;;13.15;5.47;;;11.50;99.90;;;;;;5045139;28;20028;-50
2024/02/10 03:31:31;;;;;;;15.95;5.15;;;11.50;99.90;;;;;;5077753;28;20060;-50
2024/02/10 03:33:57;;;;;;;14.05;4.93;;;11.50;99.90;;;;;;5078559;28;20100;-50
2024/02/10 03:36:26;;;;;;;13.77;5.38;;;11.50;99.90;;;;;;5046212;28;20037;-50
2024/02/10 03:38:53;;;;;;;15.48;5.25;;;11.50;99.90;;;;;;5077629;28;20056;-50
2024/02/10 03:41:20;;;;;;;11.00;4.88;;;11.50;99.90;;;;;;5077854;28;20033;-50
2024/02/10 03:43:45;;;;;;;16.10;5.30;;;11.50;99.90;;;;;;5078265;28;20030;-50
2024/02/10 03:46:14;;;;;;;15.00;5.30;;;11.50;99.90;;;;;;5046032;28;20385;-50
2024/02/10 03:48:42;;;;;;;12.65;4.95;;;11.50;99.90;;;;;;5046345;28;20064;-50
2024/02/10 03:51:09;;;;;;;15.25;5.25;;;11.50;99.90;;;;;;5077831;28;20052;-50
2024/02/10 03:53:35;;;;;;;11.27;5.00;;;11.50;99.90;;;;;;5077972;28;20017;-50
2024/02/10 03:56:01;;;;;;;10.35;5.45;;;11.40;99.90;;;;;;5079357;28;20080;-50
2024/02/10 03:58:27;;;;;;;11.27;4.45;;;11.50;99.90;;;;;;5050323;28;20025;-50
2024/02/10 04:00:53;;;;;;;10.32;4.85;;;11.40;99.90;;;;;;5048855;28;20375;-50
2024/02/10 04:03:20;;;;;;;11.20;5.07;;;11.40;99.90;;;;;;5049930;28;20021;-50
2024/02/10 04:05:48;;;;;;;13.35;5.00;;;11.40;99.90;;;;;;5049999;28;20112;-50
2024/02/10 04:08:18;;;;;;;8.20;4.13;;;11.40;99.90;;;;;;5049916;28;20481;-50
2024/02/10 04:10:44;;;;;;;11.43;4.85;;;11.40;99.90;;;;;;5081025;28;20105;-50
2024/02/10 04:13:10;;;;;;;8.57;4.32;;;11.40;99.90;;;;;;5048660;28;20028;-50
2024/02/10 04:15:36;;;;;;;11.10;4.60;;;11.40;99.90;;;;;;5081994;28;20037;-50
2024/02/10 04:18:04;;;;;;;12.63;5.57;;;11.40;99.90;;;;;;5065059;28;20470;-50
2024/02/10 04:20:30;;;;;;;13.88;5.28;;;11.40;99.90;;;;;;5081684;28;20045;-49
2024/02/10 04:22:55;;;;;;;10.55;5.38;;;11.30;99.90;;;;;;5064943;28;20029;-49
2024/02/10 04:25:21;;;;;;;10.32;4.90;;;11.30;99.90;;;;;;5049535;28;20033;-50
2024/02/10 04:27:46;;;;;;;13.50;5.47;;;11.30;99.90;;;;;;5081725;28;20018;-50
2024/02/10 04:30:13;;;;;;;13.93;4.82;;;11.30;99.90;;;;;;5081532;28;20029;-50
2024/02/10 04:32:46;;;;;;;13.02;5.03;;;11.30;99.90;;;;;;5064907;28;20025;-50
2024/02/10 04:35:12;;;;;;;10.15;4.80;;;11.30;99.90;;;;;;5049654;28;20151;-50
2024/02/10 04:37:38;;;;;;;11.02;4.88;;;11.30;99.90;;;;;;5064754;28;20037;-50
2024/02/10 04:40:04;;;;;;;11.43;4.97;;;11.30;99.90;;;;;;5081408;28;20022;-50
2024/02/10 04:42:31;;;;;;;9.93;5.30;;;11.30;99.90;;;;;;5049488;28;20041;-50
2024/02/10 04:44:59;;;;;;;7.65;4.82;;;11.30;99.90;;;;;;5081216;28;20056;-50
2024/02/10 04:47:25;;;;;;;10.80;5.00;;;11.30;99.90;;;;;;5049140;28;20504;-50
2024/02/10 04:49:52;;;;;;;13.82;5.47;;;11.20;99.90;;;;;;5047844;28;20432;-49
2024/02/10 04:52:18;;;;;;;7.55;4.80;;;11.20;99.90;;;;;;5049162;28;20096;-50
2024/02/10 04:54:44;;;;;;;10.73;5.78;;;11.30;99.90;;;;;;5081178;28;20040;-50
2024/02/10 04:57:10;;;;;;;6.75;4.57;;;11.20;99.90;;;;;;5049118;28;20099;-50
2024/02/10 04:59:38;;;;;;;7.93;4.13;;;11.20;99.90;;;;;;5049225;28;20417;-50
2024/02/10 05:02:04;;;;;;;10.85;5.03;;;11.20;99.90;;;;;;5080338;28;20044;-50
2024/02/10 05:04:29;;;;;;;11.05;5.07;;;11.20;99.90;;;;;;5081085;28;20038;-50
2024/02/10 05:06:55;;;;;;;8.90;4.75;;;11.20;99.90;;;;;;5048443;28;20048;-50
2024/02/10 05:09:20;;;;;;;11.23;4.65;;;11.20;99.90;;;;;;5063921;28;20029;-50
2024/02/10 05:11:46;;;;;;;9.63;4.60;;;11.20;99.90;;;;;;5048961;28;20026;-50
2024/02/10 05:14:12;;;;;;;11.80;4.90;;;11.20;99.90;;;;;;5048892;28;20041;-50
2024/02/10 05:16:37;;;;;;;11.77;4.72;;;11.20;99.90;;;;;;5048619;28;20075;-50
2024/02/10 05:19:03;;;;;;;13.02;4.93;;;11.20;99.90;;;;;;5049806;28;20025;-50
2024/02/10 05:21:31;;;;;;;8.50;4.20;;;11.20;99.90;;;;;;5080869;28;20053;-50
2024/02/10 05:23:59;;;;;;;9.98;4.40;;;11.20;99.90;;;;;;5063813;28;20052;-49
2024/02/10 05:26:33;;;;;;;8.63;4.03;;;11.10;99.90;;;;;;5048442;28;20041;-50
2024/02/10 05:28:58;;;;;;;7.47;4.18;;;11.10;99.90;;;;;;5063800;28;20021;-50
2024/02/10 05:31:25;;;;;;;9.57;4.93;;;11.10;99.90;;;;;;5047110;28;20470;-50
2024/02/10 05:33:53;;;;;;;11.18;4.28;;;11.20;99.90;;;;;;5080184;28;20033;-50
2024/02/10 05:36:18;;;;;;;8.40;4.60;;;11.10;99.90;;;;;;5048392;28;20042;-50
2024/02/10 05:38:47;;;;;;;11.07;4.50;;;11.10;99.90;;;;;;5080456;28;20082;-50
2024/02/10 05:41:12;;;;;;;6.65;4.07;;;11.10;99.90;;;;;;5079417;28;20045;-50
2024/02/10 05:43:38;;;;;;;13.43;4.68;;;11.10;99.90;;;;;;5048366;28;20056;-50
2024/02/10 05:46:06;;;;;;;8.88;4.88;;;11.10;99.90;;;;;;5080100;28;20081;-50
2024/02/10 05:48:32;;;;;;;10.18;5.10;;;11.10;99.90;;;;;;5079813;28;20029;-50
2024/02/10 05:50:59;;;;;;;8.10;4.70;;;11.10;99.90;;;;;;5080282;28;20112;-50
2024/02/10 05:53:25;;;;;;;10.32;4.80;;;11.10;99.90;;;;;;5048132;28;20037;-49
2024/02/10 05:55:52;;;;;;;8.63;4.82;;;11.10;99.90;;;;;;5079983;28;20049;-49
2024/02/10 05:58:17;;;;;;;9.07;4.85;;;11.10;99.90;;;;;;5047899;28;20040;-50
2024/02/10 06:00:44;;;;;;;9.10;4.57;;;11.10;99.90;;;;;;5047985;28;20029;-50
2024/02/10 06:03:10;;;;;;;7.22;4.80;;;11.10;99.90;;;;;;5079573;28;20359;-50
2024/02/10 06:05:36;;;;;;;10.32;4.25;;;11.10;99.90;;;;;;5047904;28;20041;-50
2024/02/10 06:08:03;;;;;;;12.77;4.85;;;11.10;99.90;;;;;;5047773;28;20121;-50
2024/02/10 06:10:29;;;;;;;11.32;5.32;;;11.10;99.90;;;;;;5047695;28;20086;-49
2024/02/10 06:12:55;;;;;;;7.05;4.38;;;11.10;99.90;;;;;;5062965;28;20029;-50
2024/02/10 06:15:23;;;;;;;6.68;4.82;;;11.10;99.90;;;;;;5047572;28;20026;-49
2024/02/10 06:17:51;;;;;;;9.25;5.20;;;11.10;99.90;;;;;;5078731;28;20024;-50
2024/02/10 06:20:17;;;;;;;9.77;5.05;;;11.10;99.90;;;;;;5078424;28;20026;-50
2024/02/10 06:22:47;;;;;;;11.68;5.18;;;11.10;99.90;;;;;;5047510;28;20029;-50
2024/02/10 06:25:28;;;;;;;9.05;4.80;;;11.10;99.90;;;;;;5046155;28;20037;-50
2024/02/10 06:27:59;;;;;;;8.35;4.40;;;11.10;99.90;;;;;;5047499;28;20087;-50
2024/02/10 06:30:28;;;;;;;11.18;4.63;;;11.10;99.90;;;;;;5079115;28;20025;-49
2024/02/10 06:32:55;;;;;;;9.43;4.70;;;11.10;99.90;;;;;;5078531;28;20032;-50
2024/02/10 06:35:21;;;;;;;7.55;4.95;;;11.10;99.90;;;;;;5078908;28;20085;-50
2024/02/10 06:37:49;;;;;;;11.70;5.10;;;11.10;99.90;;;;;;5079129;28;20033;-50
2024/02/10 06:40:15;;;;;;;10.52;4.88;;;11.10;99.90;;;;;;5047319;28;20036;-50
2024/02/10 06:42:46;;;;;;;10.57;5.35;;;11.10;99.90;;;;;;5079026;28;20049;-50
2024/02/10 06:45:14;;;;;;;10.27;4.82;;;11.10;99.90;;;;;;5047073;28;20071;-50
2024/02/10 06:47:40;;;;;;;13.55;5.57;;;11.10;99.90;;;;;;5046945;28;20097;-50
2024/02/10 06:50:06;;;;;;;11.00;5.15;;;11.10;99.90;;;;;;5079026;28;20038;-50
2024/02/10 06:52:37;;;;;;;10.25;4.95;;;11.10;99.90;;;;;;5078793;28;20017;-50
2024/02/10 06:55:12;;;;;;;10.07;5.20;;;11.10;99.90;;;;;;5077610;28;20030;-50
2024/02/10 06:57:41;;;;;;;11.63;5.05;;;11.10;99.90;;;;;;5046716;28;20029;-49
2024/02/10 07:00:14;;;;;;;14.63;6.13;;;11.10;99.90;;;;;;5077413;28;20064;-50
2024/02/10 07:02:43;;;;;;;27.02;7.30;;;11.10;99.90;;;;;;5046665;28;20113;-50
2024/02/10 07:05:14;;;;;;;22.75;6.30;;;11.10;99.90;;;;;;5078678;28;20037;-50
2024/02/10 07:07:41;;;;;;;27.60;6.15;;;11.10;99.90;;;;;;5046599;28;20041;-50
2024/02/10 07:10:13;;;;;;;20.58;7.30;;;11.10;99.90;;;;;;5078411;28;20052;-50
2024/02/10 07:12:42;;;;;;;39.22;8.27;;;11.10;99.90;;;;;;5046580;28;20026;-50
2024/02/10 07:15:14;;;;;;;24.05;7.53;;;11.10;99.90;;;;;;5077906;28;20036;-50
2024/02/10 07:17:43;;;;;;;25.88;7.80;;;11.10;99.90;;;;;;5046593;28;20025;-49
2024/02/10 07:20:32;;;;;;;28.95;7.97;;;11.10;99.90;;;;;;5077769;28;20034;-50
2024/02/10 07:23:00;;;;;;;26.20;8.38;;;11.10;99.90;;;;;;5046244;28;20063;-50
2024/02/10 07:25:26;;;;;;;25.48;8.10;;;11.10;99.90;;;;;;5077889;28;20041;-50
2024/02/10 07:27:52;;;;;;;26.42;8.57;;;11.10;99.90;;;;;;5046716;28;20033;-50
2024/02/10 07:30:20;;;;;;;22.70;8.52;;;11.10;99.90;;;;;;5046041;28;20029;-50
2024/02/10 07:32:49;;;;;;;35.88;8.73;;;11.10;99.90;;;;;;5046195;28;20041;-49
2024/02/10 07:35:22;;;;;;;29.55;8.55;;;11.10;99.90;;;;;;5078220;28;20041;-50
2024/02/10 07:37:47;;;;;;;19.65;7.93;;;11.10;99.90;;;;;;5046174;28;20034;-50
2024/02/10 07:40:13;;;;;;;22.02;8.45;;;11.10;99.90;;;;;;5046215;28;20025;-49
2024/02/10 07:42:39;;;;;;;24.75;8.57;;;11.10;99.90;;;;;;5078320;28;20052;-50
2024/02/10 07:45:05;;;;;;;49.95;10.50;;;11.10;99.90;;;;;;5046109;28;20064;-50
2024/02/10 07:47:30;;;;;;;37.92;9.32;;;11.10;99.90;;;;;;5028195;28;20025;-50
2024/02/10 07:49:58;;;;;;;29.85;9.05;;;11.10;99.90;;;;;;5078161;28;20040;-49
2024/02/10 07:52:26;;;;;;;36.63;8.63;;;11.10;99.90;;;;;;5046093;28;20025;-50
2024/02/10 07:54:52;;;;;;;25.48;9.45;;;11.10;99.90;;;;;;5077614;28;20049;-50
2024/02/10 07:57:20;;;;;;;42.00;9.10;;;11.10;99.90;;;;;;5077906;28;20100;-50
2024/02/10 07:59:55;;;;;;;21.95;8.25;;;11.10;99.90;;;;;;5046153;28;20061;-50
2024/02/10 08:02:23;;;;;;;39.27;10.07;;;11.10;99.90;;;;;;5060254;28;20029;-50
2024/02/10 08:04:51;;;;;;;42.28;10.27;;;11.10;99.90;;;;;;5044811;28;20268;-50
2024/02/10 08:07:20;;;;;;;40.00;10.38;;;11.10;99.90;;;;;;5045806;28;20053;-50
2024/02/10 08:09:45;;;;;;;27.15;9.70;;;11.10;99.90;;;;;;5028010;28;20448;-50
2024/02/10 08:12:17;;;;;;;28.88;9.48;;;11.10;99.90;;;;;;5061510;28;20018;-50
2024/02/10 08:14:47;;;;;;;32.08;8.93;;;11.10;99.90;;;;;;5046015;28;20029;-50
2024/02/10 08:17:13;;;;;;;34.20;8.90;;;11.10;99.90;;;;;;5045699;28;20048;-50
2024/02/10 08:19:39;;;;;;;38.42;9.60;;;11.10;99.90;;;;;;5077429;28;20085;-50
2024/02/10 08:22:09;;;;;;;36.40;9.07;;;11.10;99.90;;;;;;5045800;28;20083;-50
2024/02/10 08:24:35;;;;;;;31.63;9.75;;;11.10;99.90;;;;;;5060747;28;20029;-50
2024/02/10 08:27:01;;;;;;;30.95;9.95;;;11.10;99.90;;;;;;5045567;28;20057;-50
2024/02/10 08:29:33;;;;;;;29.60;9.85;;;11.10;99.90;;;;;;5045942;28;20033;-50
2024/02/10 08:32:02;;;;;;;30.02;9.10;;;11.10;99.90;;;;;;5075916;28;20025;-50
2024/02/10 08:34:32;;;;;;;26.70;9.00;;;11.10;99.90;;;;;;5045915;28;20037;-50
2024/02/10 08:36:58;;;;;;;28.33;9.52;;;11.10;99.90;;;;;;5045524;28;20048;-50
2024/02/10 08:39:23;;;;;;;25.17;9.63;;;11.10;99.90;;;;;;5077627;28;20033;-50
2024/02/10 08:41:50;;;;;;;23.45;9.07;;;11.10;99.90;;;;;;5045775;28;20056;-50
2024/02/10 08:44:16;;;;;;;29.88;9.55;;;11.20;99.90;;;;;;5063921;28;20407;-50
2024/02/10 08:46:42;;;;;;;27.52;9.60;;;11.10;99.90;;;;;;5081022;28;20035;-50
2024/02/10 08:49:13;;;;;;;31.67;10.18;;;11.10;99.90;;;;;;5049291;28;20021;-50
2024/02/10 08:51:39;;;;;;;23.65;9.38;;;11.10;99.90;;;;;;5048051;28;20029;-50
2024/02/10 08:54:07;;;;;;;34.17;9.85;;;11.10;99.90;;;;;;5081155;28;20064;-50
2024/02/10 08:56:38;;;;;;;31.25;9.52;;;11.10;99.90;;;;;;5104488;28;20550;-50
2024/02/10 08:59:05;;;;;;;30.02;9.25;;;11.10;99.90;;;;;;5082796;28;20051;-50
2024/02/10 09:01:31;;;;;;;25.17;9.10;;;11.10;99.90;;;;;;5075991;28;20087;-50
2024/02/10 09:03:57;;;;;;;28.75;9.00;;;11.20;99.90;;;;;;5067216;28;20033;-50
2024/02/10 09:06:22;;;;;;;33.10;10.43;;;11.10;99.90;;;;;;5066223;28;20029;-49
2024/02/10 09:08:51;;;;;;;28.45;10.13;;;11.20;99.90;;;;;;5066757;28;20027;-50
2024/02/10 09:11:18;;;;;;;22.25;9.75;;;11.10;99.90;;;;;;5067009;28;20029;-50
2024/02/10 09:13:48;;;;;;;30.27;10.45;;;11.10;99.90;;;;;;5068328;28;20084;-50
2024/02/10 09:16:13;;;;;;;29.35;10.23;;;11.10;99.90;;;;;;5068437;28;20033;-50
2024/02/10 09:18:42;;;;;;;33.50;10.65;;;11.10;99.90;;;;;;5068025;28;20090;-50
2024/02/10 09:21:08;;;;;;;28.88;10.52;;;11.10;99.90;;;;;;5068443;28;20064;-50
2024/02/10 09:23:34;;;;;;;24.55;10.20;;;11.10;99.90;;;;;;5068011;28;20029;-50
2024/02/10 09:25:59;;;;;;;34.92;10.25;;;11.10;99.90;;;;;;5067116;28;20049;-50
2024/02/10 09:28:29;;;;;;;29.63;10.40;;;11.10;99.90;;;;;;5067849;28;20025;-50
2024/02/10 09:30:55;;;;;;;33.38;10.23;;;11.10;99.90;;;;;;5068019;28;20378;-49
2024/02/10 09:33:21;;;;;;;36.42;10.95;;;11.10;99.90;;;;;;5067957;28;20079;-50
2024/02/10 09:35:51;;;;;;;39.72;11.80;;;11.20;99.90;;;;;;5066522;28;20424;-48
2024/02/10 09:38:20;;;;;;;70.03;13.02;;;11.20;99.90;;;;;;5067888;28;20029;-50
2024/02/10 09:40:46;;;;;;;54.17;12.95;;;11.20;99.90;;;;;;5066142;28;20079;-50
2024/02/10 09:43:13;;;;;;;67.75;13.57;;;11.20;99.90;;;;;;5067974;28;20037;-50
2024/02/10 09:45:41;;;;;;;65.05;13.15;;;11.20;99.90;;;;;;5066467;28;20536;-50
2024/02/10 09:48:08;;;;;;;71.13;14.82;;;11.20;99.90;;;;;;5066566;28;20036;-50
2024/02/10 09:50:34;;;;;;;57.70;14.60;;;11.30;99.90;;;;;;5067765;28;20033;-50
2024/02/10 09:53:00;;;;;;;84.78;14.60;;;11.30;99.90;;;;;;5066599;28;20028;-50
2024/02/10 09:55:26;;;;;;;109.15;16.58;;;11.30;99.90;;;;;;5066076;28;20493;-49
2024/02/10 09:57:52;;;;;;;110.60;19.38;;;11.30;99.90;;;;;;5048736;28;20465;-50
2024/02/10 10:00:17;;;;;;;115.45;17.55;;;11.30;99.90;;;;;;5067291;28;20480;-50
2024/02/10 10:02:49;;;;;;;101.43;18.08;;;11.30;99.90;;;;;;5067038;28;20112;-50
2024/02/10 10:05:18;;;;;;;105.05;17.17;;;11.40;99.90;;;;;;5049761;28;20040;-50
2024/02/10 10:07:52;;;;;;;107.90;18.95;;;11.30;99.90;;;;;;5065644;28;20033;-50
2024/02/10 10:10:21;;;;;;;78.63;17.15;;;11.40;99.90;;;;;;5067686;28;20089;-50
2024/02/10 10:12:47;;;;;;;95.18;17.58;;;11.40;99.90;;;;;;5066253;28;20025;-50
2024/02/10 10:15:13;;;;;;;78.35;14.70;;;11.40;99.90;;;;;;5065389;28;20047;-49
2024/02/10 10:17:39;;;;;;;58.05;14.85;;;11.40;99.90;;;;;;5065120;28;20381;-50
2024/02/10 10:20:05;;;;;;;80.60;16.88;;;11.50;99.90;;;;;;5049211;28;20033;-50
2024/02/10 10:22:34;;;;;;;96.63;16.42;;;11.50;99.90;;;;;;5066925;28;20084;-50
2024/02/10 10:25:02;;;;;;;122.20;18.33;;;11.50;99.90;;;;;;5067012;28;20049;-50
2024/02/10 10:27:29;;;;;;;81.25;17.27;;;11.50;99.90;;;;;;5064690;28;20033;-50
2024/02/10 10:29:54;;;;;;;107.28;18.23;;;11.50;99.90;;;;;;5041688;28;20030;-49
2024/02/10 10:32:27;;;;;;;135.88;19.35;;;11.50;99.90;;;;;;5049524;28;20036;-49
2024/02/10 10:34:56;;;;;;;117.90;19.90;;;11.50;99.90;;;;;;5066936;28;20092;-49
2024/02/10 10:37:25;;;;;;;140.13;21.40;;;11.50;99.90;;;;;;5065067;28;20033;-49
2024/02/10 10:39:51;;;;;;;126.72;21.38;;;11.50;99.90;;;;;;5049317;28;20040;-50
2024/02/10 10:42:20;;;;;;;110.07;20.13;;;11.60;99.90;;;;;;5066520;28;20017;-50
2024/02/10 10:44:50;;;;;;;123.55;21.35;;;11.60;99.90;;;;;;5065374;28;20517;-50
2024/02/10 10:47:18;;;;;;;113.53;20.60;;;11.60;99.90;;;;;;5065557;28;20033;-50
2024/02/10 10:49:44;;;;;;;142.13;22.67;;;11.60;99.90;;;;;;5065133;28;20095;-50
2024/02/10 10:52:09;;;;;;;139.18;20.42;;;11.60;99.90;;;;;;5065250;28;20029;-50
2024/02/10 10:54:38;;;;;;;129.23;21.42;;;11.70;99.90;;;;;;5046391;28;20051;-50
2024/02/10 10:57:23;;;;;;;109.68;19.67;;;11.70;99.90;;;;;;5064206;28;20174;-50
2024/02/10 11:00:00;;;;;;;156.90;21.08;;;11.70;99.90;;;;;;5048898;28;20033;-50
2024/02/10 11:02:28;;;;;;;98.68;20.15;;;11.80;99.90;;;;;;5064507;28;20079;-50
2024/02/10 11:05:04;;;;;;;136.88;20.73;;;11.80;99.90;;;;;;5048818;28;20075;-50
2024/02/10 11:07:33;;;;;;;;;;;11.80;99.90;;;;;;5066149;28;20036;-50
2024/02/10 11:09:59;;;;;;;155.48;24.15;;;11.90;99.90;;;;;;5060759;28;19909;-50
2024/02/10 11:12:31;;;;;;;232.68;27.73;;;11.90;99.90;;;;;;5063916;28;20063;-50
2024/02/10 11:14:57;;;;;;;197.90;25.73;;;11.90;99.90;;;;;;5066328;28;20060;-50
2024/02/10 11:17:29;;;;;;;160.93;23.25;;;12.00;99.90;;;;;;5065758;28;20100;-50
2024/02/10 11:20:04;;;;;;;179.23;23.85;;;12.00;99.90;;;;;;5064944;28;20029;-50
2024/02/10 11:22:42;;;;;;;159.15;23.05;;;12.00;99.90;;;;;;5065605;28;20028;-50
2024/02/10 11:25:11;;;;;;;161.10;23.80;;;12.00;99.90;;;;;;5047754;28;20028;-50
2024/02/10 11:27:37;;;;;;;136.40;23.92;;;12.00;99.90;;;;;;5065345;28;20052;-50
2024/02/10 11:30:03;;;;;;;146.50;23.83;;;12.00;99.90;;;;;;5063412;28;20032;-50
2024/02/10 11:32:31;;;;;;;167.82;23.77;;;12.10;99.90;;;;;;5065703;28;20017;-50
2024/02/10 11:34:57;;;;;;;165.25;22.27;;;12.10;99.90;;;;;;5064304;28;20033;-50
2024/02/10 11:37:25;;;;;;;160.98;22.38;;;12.10;99.90;;;;;;5070216;28;20033;-50
2024/02/10 11:39:54;;;;;;;178.35;24.05;;;12.10;99.90;;;;;;5044661;28;20091;-50
2024/02/10 11:42:20;;;;;;;144.85;22.10;;;12.10;99.90;;;;;;5044518;28;20446;-50
2024/02/10 11:44:46;;;;;;;143.57;22.30;;;12.10;99.90;;;;;;5040986;28;20065;-50
2024/02/10 11:47:12;;;;;;;216.30;26.38;;;12.10;99.90;;;;;;5047828;28;20025;-50
2024/02/10 11:49:38;;;;;;;192.70;24.42;;;12.10;99.90;;;;;;5060374;28;20036;-50
2024/02/10 11:52:09;;;;;;;176.85;24.65;;;12.20;99.90;;;;;;5044240;28;20049;-49
2024/02/10 11:54:36;;;;;;;388.20;42.72;;;12.20;99.90;;;;;;5062763;28;20092;-50
2024/02/10 11:57:09;;;;;;;205.98;26.58;;;12.20;99.90;;;;;;5071610;28;20033;-50
2024/02/10 11:59:35;;;;;;;204.45;24.13;;;12.20;99.90;;;;;;5053872;28;20017;-50
2024/02/10 12:02:01;;;;;;;183.45;26.10;;;12.30;99.90;;;;;;5044491;28;20116;-50
2024/02/10 12:04:28;;;;;;;186.77;24.20;;;12.30;99.90;;;;;;5054990;28;20021;-50
2024/02/10 12:06:54;;;;;;;193.73;25.02;;;12.40;99.90;;;;;;5064458;28;20033;-50
2024/02/10 12:09:20;;;;;;;235.52;27.70;;;12.40;99.90;;;;;;5063375;28;20457;-50
2024/02/10 12:11:48;;;;;;;208.55;25.95;;;12.40;99.90;;;;;;5063187;28;20028;-50
2024/02/10 12:14:14;;;;;;;232.40;28.23;;;12.50;99.90;;;;;;5065950;28;20048;-50
2024/02/10 12:16:43;;;;;;;219.93;27.63;;;12.50;99.90;;;;;;5057583;28;20393;-50
2024/02/10 12:19:08;;;;;;;263.15;33.63;;;12.50;99.90;;;;;;5072647;28;20075;-50
2024/02/10 12:21:38;;;;;;;298.48;36.63;;;12.50;99.90;;;;;;5067455;28;20029;-50
2024/02/10 12:24:04;;;;;;;276.90;35.85;;;12.50;99.90;;;;;;5069040;28;20032;-50
2024/02/10 12:26:29;;;;;;;220.63;30.02;;;12.60;99.90;;;;;;5069261;28;20107;-50
2024/02/10 12:28:55;;;;;;;236.70;28.63;;;12.60;99.90;;;;;;5071414;28;20025;-50
2024/02/10 12:31:21;;;;;;;296.20;36.08;;;12.60;99.90;;;;;;5056704;28;20027;-50
2024/02/10 12:33:50;;;;;;;270.67;31.55;;;12.60;99.90;;;;;;5056392;28;20028;-50